sensor_id;sensor_type;location;lat;lon;timestamp;P1;durP1;ratioP1;P2;durP2;ratioP2
10637;SDS011;47007;49.252;8.904;2024-02-21T00:00:13;10.02;;;4.07;;
10637;SDS011;47007;49.252;8.904;2024-02-21T00:00:56;10.27;;;4.00;;
10637;SDS011;47007;49.252;8.904;2024-02-21T00:01:38;7.97;;;3.63;;
10637;SDS011;47007;49.252;8.904;2024-02-21T00:02:20;8.38;;;4.20;;
10637;SDS011;47007;49.252;8.904;2024-02-21T00:03:02;9.20;;;4.10;;
10637;SDS011;47007;49.252;8.904;2024-02-21T00:03:45;9.98;;;4.30;;
10637;SDS011;47007;49.252;8.904;2024-02-21T00:04:27;8.88;;;4.00;;
10637;SDS011;47007;49.252;8.904;2024-02-21T00:05:09;7.68;;;3.78;;
10637;SDS011;47007;49.252;8.904;2024-02-21T00:05:51;8.02;;;3.70;;
10637;SDS011;47007;49.252;8.904;2024-02-21T00:06:33;7.68;;;3.53;;
10637;SDS011;47007;49.252;8.904;2024-02-21T00:07:15;5.28;;;3.38;;
10637;SDS011;47007;49.252;8.904;2024-02-21T00:07:58;7.25;;;3.47;;
10637;SDS011;47007;49.252;8.904;2024-02-21T00:08:41;9.40;;;3.63;;
10637;SDS011;47007;49.252;8.904;2024-02-21T00:09:23;8.90;;;3.95;;
10637;SDS011;47007;49.252;8.904;2024-02-21T00:10:05;8.52;;;3.90;;
10637;SDS011;47007;49.252;8.904;2024-02-21T00:10:47;5.30;;;3.25;;
10637;SDS011;47007;49.252;8.904;2024-02-21T00:11:30;8.27;;;3.85;;
10637;SDS011;47007;49.252;8.904;2024-02-21T00:12:12;6.47;;;3.40;;
10637;SDS011;47007;49.252;8.904;2024-02-21T00:12:57;9.98;;;3.63;;
10637;SDS011;47007;49.252;8.904;2024-02-21T00:13:41;7.25;;;3.67;;
10637;SDS011;47007;49.252;8.904;2024-02-21T00:14:22;6.80;;;3.63;;
10637;SDS011;47007;49.252;8.904;2024-02-21T00:15:04;6.18;;;3.58;;
10637;SDS011;47007;49.252;8.904;2024-02-21T00:15:48;9.15;;;3.55;;
10637;SDS011;47007;49.252;8.904;2024-02-21T00:16:29;7.30;;;3.80;;
10637;SDS011;47007;49.252;8.904;2024-02-21T00:17:11;9.05;;;4.45;;
10637;SDS011;47007;49.252;8.904;2024-02-21T00:17:53;5.95;;;3.25;;
10637;SDS011;47007;49.252;8.904;2024-02-21T00:18:35;7.93;;;3.85;;
10637;SDS011;47007;49.252;8.904;2024-02-21T00:19:17;4.55;;;3.28;;
10637;SDS011;47007;49.252;8.904;2024-02-21T00:19:59;8.20;;;3.65;;
10637;SDS011;47007;49.252;8.904;2024-02-21T00:20:41;10.25;;;4.00;;
10637;SDS011;47007;49.252;8.904;2024-02-21T00:21:23;8.15;;;3.88;;
10637;SDS011;47007;49.252;8.904;2024-02-21T00:22:05;6.28;;;3.40;;
10637;SDS011;47007;49.252;8.904;2024-02-21T00:22:46;8.75;;;3.75;;
10637;SDS011;47007;49.252;8.904;2024-02-21T00:23:28;8.50;;;4.35;;
10637;SDS011;47007;49.252;8.904;2024-02-21T00:24:10;5.38;;;3.30;;
10637;SDS011;47007;49.252;8.904;2024-02-21T00:24:52;10.18;;;4.07;;
10637;SDS011;47007;49.252;8.904;2024-02-21T00:25:33;11.43;;;4.18;;
10637;SDS011;47007;49.252;8.904;2024-02-21T00:26:15;8.68;;;3.45;;
10637;SDS011;47007;49.252;8.904;2024-02-21T00:26:57;7.63;;;3.80;;
10637;SDS011;47007;49.252;8.904;2024-02-21T00:27:39;7.60;;;3.75;;
10637;SDS011;47007;49.252;8.904;2024-02-21T00:28:20;5.22;;;3.38;;
10637;SDS011;47007;49.252;8.904;2024-02-21T00:29:02;7.35;;;3.65;;
10637;SDS011;47007;49.252;8.904;2024-02-21T00:29:48;7.55;;;3.60;;
10637;SDS011;47007;49.252;8.904;2024-02-21T00:30:30;7.50;;;3.38;;
10637;SDS011;47007;49.252;8.904;2024-02-21T00:31:12;8.50;;;3.30;;
10637;SDS011;47007;49.252;8.904;2024-02-21T00:31:54;8.60;;;3.60;;
10637;SDS011;47007;49.252;8.904;2024-02-21T00:32:36;6.78;;;3.25;;
10637;SDS011;47007;49.252;8.904;2024-02-21T00:33:18;6.70;;;3.25;;
10637;SDS011;47007;49.252;8.904;2024-02-21T00:34:01;7.03;;;3.75;;
10637;SDS011;47007;49.252;8.904;2024-02-21T00:34:43;12.65;;;4.13;;
10637;SDS011;47007;49.252;8.904;2024-02-21T00:35:25;5.43;;;2.95;;
10637;SDS011;47007;49.252;8.904;2024-02-21T00:36:07;8.70;;;3.58;;
10637;SDS011;47007;49.252;8.904;2024-02-21T00:36:49;6.38;;;3.40;;
10637;SDS011;47007;49.252;8.904;2024-02-21T00:37:31;6.90;;;3.47;;
10637;SDS011;47007;49.252;8.904;2024-02-21T00:38:13;7.40;;;3.42;;
10637;SDS011;47007;49.252;8.904;2024-02-21T00:38:55;6.65;;;2.70;;
10637;SDS011;47007;49.252;8.904;2024-02-21T00:39:37;8.27;;;3.55;;
10637;SDS011;47007;49.252;8.904;2024-02-21T00:40:18;6.90;;;3.30;;
10637;SDS011;47007;49.252;8.904;2024-02-21T00:41:02;7.50;;;3.88;;
10637;SDS011;47007;49.252;8.904;2024-02-21T00:41:44;6.63;;;3.58;;
10637;SDS011;47007;49.252;8.904;2024-02-21T00:42:25;8.05;;;3.40;;
10637;SDS011;47007;49.252;8.904;2024-02-21T00:43:07;7.95;;;3.67;;
10637;SDS011;47007;49.252;8.904;2024-02-21T00:43:49;7.82;;;3.50;;
10637;SDS011;47007;49.252;8.904;2024-02-21T00:44:31;8.43;;;3.45;;
10637;SDS011;47007;49.252;8.904;2024-02-21T00:45:13;7.50;;;3.58;;
10637;SDS011;47007;49.252;8.904;2024-02-21T00:45:55;6.18;;;3.30;;
10637;SDS011;47007;49.252;8.904;2024-02-21T00:46:37;8.63;;;3.75;;
10637;SDS011;47007;49.252;8.904;2024-02-21T00:47:20;7.45;;;3.50;;
10637;SDS011;47007;49.252;8.904;2024-02-21T00:48:02;6.30;;;3.53;;
10637;SDS011;47007;49.252;8.904;2024-02-21T00:48:44;5.85;;;3.03;;
10637;SDS011;47007;49.252;8.904;2024-02-21T00:49:27;5.45;;;3.42;;
10637;SDS011;47007;49.252;8.904;2024-02-21T00:50:08;7.43;;;3.53;;
10637;SDS011;47007;49.252;8.904;2024-02-21T00:50:51;6.15;;;3.45;;
10637;SDS011;47007;49.252;8.904;2024-02-21T00:51:33;6.18;;;3.58;;
10637;SDS011;47007;49.252;8.904;2024-02-21T00:52:15;6.53;;;3.25;;
10637;SDS011;47007;49.252;8.904;2024-02-21T00:52:57;9.93;;;3.60;;
10637;SDS011;47007;49.252;8.904;2024-02-21T00:53:39;6.95;;;3.28;;
10637;SDS011;47007;49.252;8.904;2024-02-21T00:54:20;5.30;;;2.80;;
10637;SDS011;47007;49.252;8.904;2024-02-21T00:55:03;9.73;;;4.22;;
10637;SDS011;47007;49.252;8.904;2024-02-21T00:55:45;5.07;;;3.55;;
10637;SDS011;47007;49.252;8.904;2024-02-21T00:56:27;7.70;;;3.40;;
10637;SDS011;47007;49.252;8.904;2024-02-21T00:57:09;7.47;;;3.70;;
10637;SDS011;47007;49.252;8.904;2024-02-21T00:57:51;6.22;;;3.28;;
10637;SDS011;47007;49.252;8.904;2024-02-21T00:58:32;8.95;;;3.65;;
10637;SDS011;47007;49.252;8.904;2024-02-21T00:59:14;8.43;;;4.13;;
10637;SDS011;47007;49.252;8.904;2024-02-21T00:59:56;6.70;;;3.45;;
10637;SDS011;47007;49.252;8.904;2024-02-21T01:00:38;6.30;;;3.40;;
10637;SDS011;47007;49.252;8.904;2024-02-21T01:01:28;7.18;;;3.35;;
10637;SDS011;47007;49.252;8.904;2024-02-21T01:02:11;6.93;;;3.45;;
10637;SDS011;47007;49.252;8.904;2024-02-21T01:02:52;7.72;;;3.70;;
10637;SDS011;47007;49.252;8.904;2024-02-21T01:03:34;6.38;;;3.70;;
10637;SDS011;47007;49.252;8.904;2024-02-21T01:04:16;7.50;;;3.58;;
10637;SDS011;47007;49.252;8.904;2024-02-21T01:04:58;5.68;;;3.17;;
10637;SDS011;47007;49.252;8.904;2024-02-21T01:05:40;6.53;;;3.30;;
10637;SDS011;47007;49.252;8.904;2024-02-21T01:06:22;5.18;;;3.25;;
10637;SDS011;47007;49.252;8.904;2024-02-21T01:07:05;5.68;;;3.35;;
10637;SDS011;47007;49.252;8.904;2024-02-21T01:07:46;6.32;;;3.83;;
10637;SDS011;47007;49.252;8.904;2024-02-21T01:08:28;6.07;;;3.00;;
10637;SDS011;47007;49.252;8.904;2024-02-21T01:09:13;6.65;;;3.30;;
10637;SDS011;47007;49.252;8.904;2024-02-21T01:09:55;6.80;;;3.60;;
10637;SDS011;47007;49.252;8.904;2024-02-21T01:10:37;6.35;;;3.15;;
10637;SDS011;47007;49.252;8.904;2024-02-21T01:11:19;7.72;;;3.65;;
10637;SDS011;47007;49.252;8.904;2024-02-21T01:12:01;6.30;;;2.97;;
10637;SDS011;47007;49.252;8.904;2024-02-21T01:12:42;7.88;;;3.22;;
10637;SDS011;47007;49.252;8.904;2024-02-21T01:13:24;7.05;;;2.80;;
10637;SDS011;47007;49.252;8.904;2024-02-21T01:14:06;4.00;;;2.95;;
10637;SDS011;47007;49.252;8.904;2024-02-21T01:14:48;7.60;;;3.53;;
10637;SDS011;47007;49.252;8.904;2024-02-21T01:15:31;4.82;;;2.63;;
10637;SDS011;47007;49.252;8.904;2024-02-21T01:16:12;5.22;;;2.83;;
10637;SDS011;47007;49.252;8.904;2024-02-21T01:16:54;5.45;;;2.78;;
10637;SDS011;47007;49.252;8.904;2024-02-21T01:17:36;6.95;;;3.08;;
10637;SDS011;47007;49.252;8.904;2024-02-21T01:18:18;5.97;;;2.83;;
10637;SDS011;47007;49.252;8.904;2024-02-21T01:19:00;6.13;;;3.13;;
10637;SDS011;47007;49.252;8.904;2024-02-21T01:19:42;6.40;;;2.65;;
10637;SDS011;47007;49.252;8.904;2024-02-21T01:20:24;8.82;;;3.45;;
10637;SDS011;47007;49.252;8.904;2024-02-21T01:21:06;6.20;;;2.55;;
10637;SDS011;47007;49.252;8.904;2024-02-21T01:21:49;6.55;;;2.78;;
10637;SDS011;47007;49.252;8.904;2024-02-21T01:22:31;5.38;;;2.80;;
10637;SDS011;47007;49.252;8.904;2024-02-21T01:23:13;6.45;;;2.92;;
10637;SDS011;47007;49.252;8.904;2024-02-21T01:23:54;6.28;;;2.80;;
10637;SDS011;47007;49.252;8.904;2024-02-21T01:24:36;4.60;;;2.60;;
10637;SDS011;47007;49.252;8.904;2024-02-21T01:25:18;6.75;;;3.20;;
10637;SDS011;47007;49.252;8.904;2024-02-21T01:26:00;7.57;;;2.72;;
10637;SDS011;47007;49.252;8.904;2024-02-21T01:26:42;6.88;;;3.80;;
10637;SDS011;47007;49.252;8.904;2024-02-21T01:27:24;5.93;;;3.30;;
10637;SDS011;47007;49.252;8.904;2024-02-21T01:28:05;8.32;;;3.72;;
10637;SDS011;47007;49.252;8.904;2024-02-21T01:28:47;6.50;;;3.03;;
10637;SDS011;47007;49.252;8.904;2024-02-21T01:29:29;6.53;;;3.10;;
10637;SDS011;47007;49.252;8.904;2024-02-21T01:30:11;8.65;;;3.42;;
10637;SDS011;47007;49.252;8.904;2024-02-21T01:30:53;5.93;;;2.60;;
10637;SDS011;47007;49.252;8.904;2024-02-21T01:31:35;7.28;;;2.70;;
10637;SDS011;47007;49.252;8.904;2024-02-21T01:32:17;6.35;;;3.30;;
10637;SDS011;47007;49.252;8.904;2024-02-21T01:32:59;7.30;;;3.58;;
10637;SDS011;47007;49.252;8.904;2024-02-21T01:33:40;7.57;;;3.20;;
10637;SDS011;47007;49.252;8.904;2024-02-21T01:34:22;5.68;;;3.17;;
10637;SDS011;47007;49.252;8.904;2024-02-21T01:35:04;8.23;;;3.35;;
10637;SDS011;47007;49.252;8.904;2024-02-21T01:35:46;7.07;;;2.90;;
10637;SDS011;47007;49.252;8.904;2024-02-21T01:36:28;5.32;;;2.75;;
10637;SDS011;47007;49.252;8.904;2024-02-21T01:37:10;5.55;;;3.05;;
10637;SDS011;47007;49.252;8.904;2024-02-21T01:37:52;6.40;;;3.10;;
10637;SDS011;47007;49.252;8.904;2024-02-21T01:38:34;7.05;;;3.00;;
10637;SDS011;47007;49.252;8.904;2024-02-21T01:39:16;7.00;;;3.60;;
10637;SDS011;47007;49.252;8.904;2024-02-21T01:39:57;6.82;;;3.00;;
10637;SDS011;47007;49.252;8.904;2024-02-21T01:40:39;8.32;;;3.65;;
10637;SDS011;47007;49.252;8.904;2024-02-21T01:41:21;7.70;;;3.80;;
10637;SDS011;47007;49.252;8.904;2024-02-21T01:42:03;4.20;;;2.50;;
10637;SDS011;47007;49.252;8.904;2024-02-21T01:42:45;8.55;;;3.30;;
10637;SDS011;47007;49.252;8.904;2024-02-21T01:43:29;5.68;;;2.90;;
10637;SDS011;47007;49.252;8.904;2024-02-21T01:44:10;5.40;;;3.22;;
10637;SDS011;47007;49.252;8.904;2024-02-21T01:44:53;5.53;;;3.03;;
10637;SDS011;47007;49.252;8.904;2024-02-21T01:45:34;5.43;;;2.80;;
10637;SDS011;47007;49.252;8.904;2024-02-21T01:46:16;10.93;;;3.33;;
10637;SDS011;47007;49.252;8.904;2024-02-21T01:46:58;5.43;;;3.10;;
10637;SDS011;47007;49.252;8.904;2024-02-21T01:47:40;7.28;;;3.10;;
10637;SDS011;47007;49.252;8.904;2024-02-21T01:48:22;6.63;;;2.60;;
10637;SDS011;47007;49.252;8.904;2024-02-21T01:49:05;5.82;;;2.63;;
10637;SDS011;47007;49.252;8.904;2024-02-21T01:49:47;6.55;;;3.03;;
10637;SDS011;47007;49.252;8.904;2024-02-21T01:50:29;5.45;;;2.92;;
10637;SDS011;47007;49.252;8.904;2024-02-21T01:51:10;5.78;;;3.17;;
10637;SDS011;47007;49.252;8.904;2024-02-21T01:51:53;5.18;;;2.85;;
10637;SDS011;47007;49.252;8.904;2024-02-21T01:52:35;7.10;;;3.42;;
10637;SDS011;47007;49.252;8.904;2024-02-21T01:53:18;6.22;;;2.90;;
10637;SDS011;47007;49.252;8.904;2024-02-21T01:54:04;6.25;;;3.40;;
10637;SDS011;47007;49.252;8.904;2024-02-21T01:54:46;4.57;;;2.78;;
10637;SDS011;47007;49.252;8.904;2024-02-21T01:55:28;7.93;;;3.42;;
10637;SDS011;47007;49.252;8.904;2024-02-21T01:56:10;5.68;;;3.25;;
10637;SDS011;47007;49.252;8.904;2024-02-21T01:56:54;5.43;;;2.70;;
10637;SDS011;47007;49.252;8.904;2024-02-21T01:57:36;5.63;;;3.20;;
10637;SDS011;47007;49.252;8.904;2024-02-21T01:58:21;4.53;;;2.50;;
10637;SDS011;47007;49.252;8.904;2024-02-21T01:59:03;5.88;;;2.67;;
10637;SDS011;47007;49.252;8.904;2024-02-21T01:59:45;6.78;;;3.00;;
10637;SDS011;47007;49.252;8.904;2024-02-21T02:00:28;7.22;;;3.40;;
10637;SDS011;47007;49.252;8.904;2024-02-21T02:01:10;4.93;;;2.85;;
10637;SDS011;47007;49.252;8.904;2024-02-21T02:01:52;8.60;;;3.35;;
10637;SDS011;47007;49.252;8.904;2024-02-21T02:02:36;5.20;;;3.05;;
10637;SDS011;47007;49.252;8.904;2024-02-21T02:03:19;5.72;;;3.00;;
10637;SDS011;47007;49.252;8.904;2024-02-21T02:04:01;5.43;;;2.85;;
10637;SDS011;47007;49.252;8.904;2024-02-21T02:04:43;5.75;;;3.03;;
10637;SDS011;47007;49.252;8.904;2024-02-21T02:05:26;6.43;;;2.90;;
10637;SDS011;47007;49.252;8.904;2024-02-21T02:06:08;7.03;;;3.00;;
10637;SDS011;47007;49.252;8.904;2024-02-21T02:06:50;5.20;;;2.88;;
10637;SDS011;47007;49.252;8.904;2024-02-21T02:07:32;7.25;;;3.13;;
10637;SDS011;47007;49.252;8.904;2024-02-21T02:08:18;4.63;;;3.05;;
10637;SDS011;47007;49.252;8.904;2024-02-21T02:09:00;4.40;;;2.70;;
10637;SDS011;47007;49.252;8.904;2024-02-21T02:09:42;5.82;;;2.80;;
10637;SDS011;47007;49.252;8.904;2024-02-21T02:10:24;8.20;;;3.60;;
10637;SDS011;47007;49.252;8.904;2024-02-21T02:11:06;5.45;;;3.17;;
10637;SDS011;47007;49.252;8.904;2024-02-21T02:11:48;7.20;;;3.05;;
10637;SDS011;47007;49.252;8.904;2024-02-21T02:12:30;6.47;;;3.00;;
10637;SDS011;47007;49.252;8.904;2024-02-21T02:13:12;6.57;;;3.17;;
10637;SDS011;47007;49.252;8.904;2024-02-21T02:13:54;6.70;;;3.10;;
10637;SDS011;47007;49.252;8.904;2024-02-21T02:14:36;4.80;;;2.80;;
10637;SDS011;47007;49.252;8.904;2024-02-21T02:15:18;5.20;;;2.58;;
10637;SDS011;47007;49.252;8.904;2024-02-21T02:16:00;8.90;;;3.30;;
10637;SDS011;47007;49.252;8.904;2024-02-21T02:16:42;5.07;;;2.70;;
10637;SDS011;47007;49.252;8.904;2024-02-21T02:17:26;4.00;;;2.85;;
10637;SDS011;47007;49.252;8.904;2024-02-21T02:18:09;6.15;;;2.72;;
10637;SDS011;47007;49.252;8.904;2024-02-21T02:18:52;5.93;;;3.33;;
10637;SDS011;47007;49.252;8.904;2024-02-21T02:19:33;5.05;;;3.05;;
10637;SDS011;47007;49.252;8.904;2024-02-21T02:20:16;6.30;;;3.00;;
10637;SDS011;47007;49.252;8.904;2024-02-21T02:20:58;5.15;;;2.92;;
10637;SDS011;47007;49.252;8.904;2024-02-21T02:21:41;5.45;;;3.22;;
10637;SDS011;47007;49.252;8.904;2024-02-21T02:22:30;5.68;;;3.53;;
10637;SDS011;47007;49.252;8.904;2024-02-21T02:24:15;7.25;;;3.17;;
10637;SDS011;47007;49.252;8.904;2024-02-21T02:24:57;6.53;;;2.97;;
10637;SDS011;47007;49.252;8.904;2024-02-21T02:25:39;5.63;;;3.30;;
10637;SDS011;47007;49.252;8.904;2024-02-21T02:26:21;8.35;;;4.22;;
10637;SDS011;47007;49.252;8.904;2024-02-21T02:27:03;5.70;;;3.28;;
10637;SDS011;47007;49.252;8.904;2024-02-21T02:27:45;6.47;;;3.22;;
10637;SDS011;47007;49.252;8.904;2024-02-21T02:28:27;4.93;;;3.05;;
10637;SDS011;47007;49.252;8.904;2024-02-21T02:29:08;6.93;;;3.03;;
10637;SDS011;47007;49.252;8.904;2024-02-21T02:29:50;7.03;;;3.28;;
10637;SDS011;47007;49.252;8.904;2024-02-21T02:30:34;6.18;;;2.88;;
10637;SDS011;47007;49.252;8.904;2024-02-21T02:31:19;4.55;;;2.88;;
10637;SDS011;47007;49.252;8.904;2024-02-21T02:32:01;7.93;;;3.53;;
10637;SDS011;47007;49.252;8.904;2024-02-21T02:32:44;7.82;;;3.30;;
10637;SDS011;47007;49.252;8.904;2024-02-21T02:33:27;6.43;;;3.13;;
10637;SDS011;47007;49.252;8.904;2024-02-21T02:34:09;5.60;;;3.22;;
10637;SDS011;47007;49.252;8.904;2024-02-21T02:34:51;7.65;;;3.50;;
10637;SDS011;47007;49.252;8.904;2024-02-21T02:35:33;7.63;;;3.50;;
10637;SDS011;47007;49.252;8.904;2024-02-21T02:36:17;7.35;;;4.18;;
10637;SDS011;47007;49.252;8.904;2024-02-21T02:36:59;11.50;;;4.30;;
10637;SDS011;47007;49.252;8.904;2024-02-21T02:37:47;7.50;;;4.15;;
10637;SDS011;47007;49.252;8.904;2024-02-21T02:38:30;7.25;;;3.88;;
10637;SDS011;47007;49.252;8.904;2024-02-21T02:39:11;7.93;;;3.65;;
10637;SDS011;47007;49.252;8.904;2024-02-21T02:39:53;8.75;;;3.60;;
10637;SDS011;47007;49.252;8.904;2024-02-21T02:40:35;5.97;;;3.55;;
10637;SDS011;47007;49.252;8.904;2024-02-21T02:41:17;7.03;;;3.50;;
10637;SDS011;47007;49.252;8.904;2024-02-21T02:41:59;8.57;;;3.53;;
10637;SDS011;47007;49.252;8.904;2024-02-21T02:42:41;8.77;;;3.50;;
10637;SDS011;47007;49.252;8.904;2024-02-21T02:43:23;6.82;;;3.65;;
10637;SDS011;47007;49.252;8.904;2024-02-21T02:44:04;7.53;;;3.63;;
10637;SDS011;47007;49.252;8.904;2024-02-21T02:44:46;4.80;;;3.38;;
10637;SDS011;47007;49.252;8.904;2024-02-21T02:45:28;8.38;;;3.95;;
10637;SDS011;47007;49.252;8.904;2024-02-21T02:46:10;5.15;;;2.75;;
10637;SDS011;47007;49.252;8.904;2024-02-21T02:46:52;7.05;;;2.92;;
10637;SDS011;47007;49.252;8.904;2024-02-21T02:47:34;5.57;;;3.40;;
10637;SDS011;47007;49.252;8.904;2024-02-21T02:48:16;5.05;;;3.00;;
10637;SDS011;47007;49.252;8.904;2024-02-21T02:48:58;6.82;;;3.10;;
10637;SDS011;47007;49.252;8.904;2024-02-21T02:49:40;6.47;;;3.08;;
10637;SDS011;47007;49.252;8.904;2024-02-21T02:50:22;6.10;;;3.47;;
10637;SDS011;47007;49.252;8.904;2024-02-21T02:51:05;3.97;;;2.67;;
10637;SDS011;47007;49.252;8.904;2024-02-21T02:51:46;6.60;;;3.00;;
10637;SDS011;47007;49.252;8.904;2024-02-21T02:52:28;5.53;;;3.10;;
10637;SDS011;47007;49.252;8.904;2024-02-21T02:53:10;5.13;;;2.88;;
10637;SDS011;47007;49.252;8.904;2024-02-21T02:53:52;7.22;;;3.38;;
10637;SDS011;47007;49.252;8.904;2024-02-21T02:54:34;5.57;;;2.95;;
10637;SDS011;47007;49.252;8.904;2024-02-21T02:55:15;3.65;;;2.85;;
10637;SDS011;47007;49.252;8.904;2024-02-21T02:55:57;4.65;;;2.90;;
10637;SDS011;47007;49.252;8.904;2024-02-21T02:56:39;6.15;;;3.15;;
10637;SDS011;47007;49.252;8.904;2024-02-21T02:57:21;4.82;;;3.03;;
10637;SDS011;47007;49.252;8.904;2024-02-21T02:58:03;7.50;;;3.00;;
10637;SDS011;47007;49.252;8.904;2024-02-21T02:58:45;6.50;;;3.20;;
10637;SDS011;47007;49.252;8.904;2024-02-21T02:59:27;5.43;;;3.25;;
10637;SDS011;47007;49.252;8.904;2024-02-21T03:00:13;6.55;;;3.10;;
10637;SDS011;47007;49.252;8.904;2024-02-21T03:00:55;7.88;;;3.30;;
10637;SDS011;47007;49.252;8.904;2024-02-21T03:01:37;6.25;;;3.13;;
10637;SDS011;47007;49.252;8.904;2024-02-21T03:02:20;6.50;;;3.28;;
10637;SDS011;47007;49.252;8.904;2024-02-21T03:03:01;8.65;;;3.30;;
10637;SDS011;47007;49.252;8.904;2024-02-21T03:03:46;5.93;;;3.00;;
10637;SDS011;47007;49.252;8.904;2024-02-21T03:04:28;6.13;;;3.17;;
10637;SDS011;47007;49.252;8.904;2024-02-21T03:05:11;7.95;;;3.10;;
10637;SDS011;47007;49.252;8.904;2024-02-21T03:05:57;5.22;;;3.33;;
10637;SDS011;47007;49.252;8.904;2024-02-21T03:06:39;8.18;;;3.30;;
10637;SDS011;47007;49.252;8.904;2024-02-21T03:07:21;7.03;;;3.17;;
10637;SDS011;47007;49.252;8.904;2024-02-21T03:08:03;6.70;;;2.90;;
10637;SDS011;47007;49.252;8.904;2024-02-21T03:08:48;5.65;;;3.13;;
10637;SDS011;47007;49.252;8.904;2024-02-21T03:09:30;6.07;;;3.20;;
10637;SDS011;47007;49.252;8.904;2024-02-21T03:10:12;7.82;;;3.08;;
10637;SDS011;47007;49.252;8.904;2024-02-21T03:10:54;6.35;;;3.20;;
10637;SDS011;47007;49.252;8.904;2024-02-21T03:11:36;8.88;;;3.00;;
10637;SDS011;47007;49.252;8.904;2024-02-21T03:12:19;5.93;;;2.60;;
10637;SDS011;47007;49.252;8.904;2024-02-21T03:13:05;6.28;;;3.42;;
10637;SDS011;47007;49.252;8.904;2024-02-21T03:13:47;5.97;;;3.28;;
10637;SDS011;47007;49.252;8.904;2024-02-21T03:14:29;4.63;;;2.70;;
10637;SDS011;47007;49.252;8.904;2024-02-21T03:15:11;3.58;;;2.50;;
10637;SDS011;47007;49.252;8.904;2024-02-21T03:15:53;3.70;;;2.47;;
10637;SDS011;47007;49.252;8.904;2024-02-21T03:16:35;5.20;;;2.67;;
10637;SDS011;47007;49.252;8.904;2024-02-21T03:17:17;4.68;;;2.72;;
10637;SDS011;47007;49.252;8.904;2024-02-21T03:17:59;5.95;;;2.95;;
10637;SDS011;47007;49.252;8.904;2024-02-21T03:18:41;6.45;;;2.85;;
10637;SDS011;47007;49.252;8.904;2024-02-21T03:19:24;5.55;;;2.88;;
10637;SDS011;47007;49.252;8.904;2024-02-21T03:20:07;6.45;;;2.75;;
10637;SDS011;47007;49.252;8.904;2024-02-21T03:20:54;5.85;;;2.67;;
10637;SDS011;47007;49.252;8.904;2024-02-21T03:21:35;5.50;;;3.20;;
10637;SDS011;47007;49.252;8.904;2024-02-21T03:22:17;5.65;;;3.15;;
10637;SDS011;47007;49.252;8.904;2024-02-21T03:22:59;6.20;;;2.60;;
10637;SDS011;47007;49.252;8.904;2024-02-21T03:23:41;5.85;;;3.00;;
10637;SDS011;47007;49.252;8.904;2024-02-21T03:24:23;6.82;;;3.40;;
10637;SDS011;47007;49.252;8.904;2024-02-21T03:25:05;7.10;;;2.67;;
10637;SDS011;47007;49.252;8.904;2024-02-21T03:25:48;6.85;;;3.10;;
10637;SDS011;47007;49.252;8.904;2024-02-21T03:26:29;6.72;;;2.50;;
10637;SDS011;47007;49.252;8.904;2024-02-21T03:27:11;5.10;;;3.28;;
10637;SDS011;47007;49.252;8.904;2024-02-21T03:27:53;5.00;;;2.72;;
10637;SDS011;47007;49.252;8.904;2024-02-21T03:28:35;5.78;;;2.80;;
10637;SDS011;47007;49.252;8.904;2024-02-21T03:29:17;8.07;;;2.97;;
10637;SDS011;47007;49.252;8.904;2024-02-21T03:29:58;7.00;;;2.80;;
10637;SDS011;47007;49.252;8.904;2024-02-21T03:30:40;7.35;;;2.60;;
10637;SDS011;47007;49.252;8.904;2024-02-21T03:31:22;6.00;;;3.22;;
10637;SDS011;47007;49.252;8.904;2024-02-21T03:32:11;5.35;;;2.75;;
10637;SDS011;47007;49.252;8.904;2024-02-21T03:32:53;5.35;;;2.67;;
10637;SDS011;47007;49.252;8.904;2024-02-21T03:33:35;6.43;;;2.92;;
10637;SDS011;47007;49.252;8.904;2024-02-21T03:34:16;5.53;;;2.70;;
10637;SDS011;47007;49.252;8.904;2024-02-21T03:34:58;7.38;;;3.00;;
10637;SDS011;47007;49.252;8.904;2024-02-21T03:35:40;5.32;;;3.20;;
10637;SDS011;47007;49.252;8.904;2024-02-21T03:36:22;4.25;;;2.50;;
10637;SDS011;47007;49.252;8.904;2024-02-21T03:37:04;5.13;;;2.75;;
10637;SDS011;47007;49.252;8.904;2024-02-21T03:37:46;6.00;;;2.67;;
10637;SDS011;47007;49.252;8.904;2024-02-21T03:38:28;4.97;;;2.20;;
10637;SDS011;47007;49.252;8.904;2024-02-21T03:39:10;6.18;;;2.65;;
10637;SDS011;47007;49.252;8.904;2024-02-21T03:39:52;3.35;;;2.33;;
10637;SDS011;47007;49.252;8.904;2024-02-21T03:40:34;7.00;;;3.00;;
10637;SDS011;47007;49.252;8.904;2024-02-21T03:41:16;7.13;;;2.80;;
10637;SDS011;47007;49.252;8.904;2024-02-21T03:42:01;5.85;;;2.42;;
10637;SDS011;47007;49.252;8.904;2024-02-21T03:42:46;4.43;;;2.55;;
10637;SDS011;47007;49.252;8.904;2024-02-21T03:43:27;3.92;;;2.28;;
10637;SDS011;47007;49.252;8.904;2024-02-21T03:44:09;6.15;;;2.35;;
10637;SDS011;47007;49.252;8.904;2024-02-21T03:44:51;5.03;;;2.40;;
10637;SDS011;47007;49.252;8.904;2024-02-21T03:45:33;3.75;;;2.60;;
10637;SDS011;47007;49.252;8.904;2024-02-21T03:46:15;5.18;;;2.25;;
10637;SDS011;47007;49.252;8.904;2024-02-21T03:46:57;4.38;;;2.55;;
10637;SDS011;47007;49.252;8.904;2024-02-21T03:47:38;6.00;;;2.70;;
10637;SDS011;47007;49.252;8.904;2024-02-21T03:48:20;4.30;;;2.45;;
10637;SDS011;47007;49.252;8.904;2024-02-21T03:49:02;5.60;;;2.80;;
10637;SDS011;47007;49.252;8.904;2024-02-21T03:49:44;6.57;;;2.67;;
10637;SDS011;47007;49.252;8.904;2024-02-21T03:50:26;6.72;;;2.83;;
10637;SDS011;47007;49.252;8.904;2024-02-21T03:51:09;4.53;;;2.38;;
10637;SDS011;47007;49.252;8.904;2024-02-21T03:51:50;4.80;;;2.60;;
10637;SDS011;47007;49.252;8.904;2024-02-21T03:52:32;4.05;;;2.30;;
10637;SDS011;47007;49.252;8.904;2024-02-21T03:53:14;5.75;;;3.00;;
10637;SDS011;47007;49.252;8.904;2024-02-21T03:53:56;6.43;;;2.88;;
10637;SDS011;47007;49.252;8.904;2024-02-21T03:54:37;5.20;;;2.40;;
10637;SDS011;47007;49.252;8.904;2024-02-21T03:55:19;5.13;;;3.22;;
10637;SDS011;47007;49.252;8.904;2024-02-21T03:56:01;5.18;;;2.58;;
10637;SDS011;47007;49.252;8.904;2024-02-21T03:56:45;6.28;;;3.00;;
10637;SDS011;47007;49.252;8.904;2024-02-21T03:57:29;5.55;;;2.85;;
10637;SDS011;47007;49.252;8.904;2024-02-21T03:58:11;8.00;;;2.83;;
10637;SDS011;47007;49.252;8.904;2024-02-21T03:58:53;5.63;;;2.30;;
10637;SDS011;47007;49.252;8.904;2024-02-21T03:59:34;5.13;;;2.30;;
10637;SDS011;47007;49.252;8.904;2024-02-21T04:00:16;5.22;;;2.50;;
10637;SDS011;47007;49.252;8.904;2024-02-21T04:01:02;5.60;;;2.40;;
10637;SDS011;47007;49.252;8.904;2024-02-21T04:01:45;4.60;;;2.50;;
10637;SDS011;47007;49.252;8.904;2024-02-21T04:02:27;6.88;;;2.33;;
10637;SDS011;47007;49.252;8.904;2024-02-21T04:03:09;6.90;;;2.28;;
10637;SDS011;47007;49.252;8.904;2024-02-21T04:03:51;6.90;;;2.90;;
10637;SDS011;47007;49.252;8.904;2024-02-21T04:04:33;6.90;;;2.45;;
10637;SDS011;47007;49.252;8.904;2024-02-21T04:05:17;7.95;;;2.25;;
10637;SDS011;47007;49.252;8.904;2024-02-21T04:05:59;7.28;;;2.42;;
10637;SDS011;47007;49.252;8.904;2024-02-21T04:06:50;5.57;;;2.78;;
10637;SDS011;47007;49.252;8.904;2024-02-21T04:07:33;5.10;;;2.35;;
10637;SDS011;47007;49.252;8.904;2024-02-21T04:08:15;3.92;;;2.25;;
10637;SDS011;47007;49.252;8.904;2024-02-21T04:08:57;6.32;;;2.38;;
10637;SDS011;47007;49.252;8.904;2024-02-21T04:09:39;5.32;;;2.58;;
10637;SDS011;47007;49.252;8.904;2024-02-21T04:10:21;7.97;;;2.67;;
10637;SDS011;47007;49.252;8.904;2024-02-21T04:11:03;5.00;;;2.70;;
10637;SDS011;47007;49.252;8.904;2024-02-21T04:11:45;4.47;;;2.33;;
10637;SDS011;47007;49.252;8.904;2024-02-21T04:12:27;4.18;;;2.17;;
10637;SDS011;47007;49.252;8.904;2024-02-21T04:13:09;6.40;;;2.72;;
10637;SDS011;47007;49.252;8.904;2024-02-21T04:13:51;3.97;;;2.17;;
10637;SDS011;47007;49.252;8.904;2024-02-21T04:14:33;5.10;;;2.20;;
10637;SDS011;47007;49.252;8.904;2024-02-21T04:15:18;7.60;;;2.60;;
10637;SDS011;47007;49.252;8.904;2024-02-21T04:16:01;5.25;;;2.80;;